Time;durP1;ratioP1;P1;durP2;ratioP2;P2;SDS_P1;SDS_P2;PMS_P1;PMS_P2;Temp;Humidity;BMP_temperature;BMP_pressure;BME280_temperature;BME280_humidity;BME280_pressure;Samples;Min_cycle;Max_cycle;Signal;HPM_P1;HPM_P2
2023/10/11 00:00:39;;;;;;;6.10;3.92;;;;;;;22.43;51.53;101185.41;5056103;28;20091;-66
2023/10/11 00:05:50;;;;;;;6.75;4.05;;;;;;;22.39;51.86;101193.94;5057054;28;20144;-67
2023/10/11 00:08:17;;;;;;;7.47;4.10;;;;;;;22.43;51.48;101192.56;5058655;28;20789;-66
2023/10/11 00:10:49;;;;;;;8.40;4.80;;;;;;;22.30;51.60;101175.50;5052791;28;20048;-66
2023/10/11 00:13:15;;;;;;;6.65;4.00;;;;;;;22.36;52.01;101187.19;5058540;28;20148;-66
2023/10/11 00:15:43;;;;;;;5.10;3.40;;;;;;;22.40;51.57;101191.09;5048092;28;20503;-66
2023/10/11 00:18:10;;;;;;;6.43;3.95;;;;;;;22.40;51.79;101193.75;5050007;28;20110;-66
2023/10/11 00:20:50;;;;;;;6.63;4.05;;;;;;;22.43;51.99;101200.50;5058044;28;20150;-66
2023/10/11 00:23:18;;;;;;;7.70;4.35;;;;;;;22.39;51.77;101192.13;5055964;28;20056;-66
2023/10/11 00:25:44;;;;;;;5.90;3.55;;;;;;;22.41;52.04;101186.63;5061283;28;20095;-66
2023/10/11 00:28:11;;;;;;;5.85;3.75;;;;;;;22.40;52.02;101184.97;5051749;28;20052;-67
2023/10/11 00:30:38;;;;;;;8.93;4.20;;;;;;;22.37;51.95;101180.88;5059025;28;20055;-66
2023/10/11 00:33:07;;;;;;;8.53;4.37;;;;;;;22.40;51.95;101182.31;5060563;28;20410;-66
2023/10/11 00:35:41;;;;;;;8.75;4.10;;;;;;;22.38;51.88;101179.84;5051647;28;20499;-66
2023/10/11 00:38:11;;;;;;;8.15;3.88;;;;;;;22.39;51.79;101178.03;5055406;28;20433;-66
2023/10/11 00:40:37;;;;;;;5.85;3.78;;;;;;;22.39;51.68;101178.84;5057313;28;20817;-66
2023/10/11 00:43:02;;;;;;;6.13;3.80;;;;;;;22.38;51.87;101179.03;5036473;28;20049;-67
2023/10/11 00:45:36;;;;;;;8.55;4.63;;;;;;;22.36;51.97;101173.91;5050802;28;20055;-66
2023/10/11 00:48:06;;;;;;;8.85;3.83;;;;;;;22.38;52.16;101179.03;5040223;28;21282;-66
2023/10/11 00:50:33;;;;;;;6.68;3.83;;;;;;;22.29;51.98;101163.25;5057791;28;20113;-66
2023/10/11 00:53:00;;;;;;;8.95;4.15;;;;;;;22.36;52.10;101175.75;5044482;28;20052;-66
2023/10/11 00:55:29;;;;;;;5.38;3.60;;;;;;;22.36;51.99;101183.72;5054502;28;20055;-66
2023/10/11 00:57:57;;;;;;;9.98;3.78;;;;;;;22.38;52.07;101173.72;5052659;28;20506;-67
2023/10/11 01:00:24;;;;;;;10.15;4.40;;;;;;;22.38;51.98;101171.06;5058043;28;20037;-66
2023/10/11 01:02:52;;;;;;;7.07;3.75;;;;;;;22.37;52.04;101172.09;5055405;28;20067;-66
2023/10/11 01:05:18;;;;;;;7.03;4.25;;;;;;;22.37;52.25;101170.25;5053857;28;20068;-66
2023/10/11 01:07:46;;;;;;;8.45;4.20;;;;;;;22.36;51.90;101173.91;5060309;28;20509;-66
2023/10/11 01:10:12;;;;;;;7.45;4.15;;;;;;;22.29;52.20;101171.22;5056171;28;20076;-66
2023/10/11 01:12:41;;;;;;;5.88;3.60;;;;;;;22.38;52.07;101166.59;5057555;28;20049;-66
2023/10/11 01:15:11;;;;;;;6.18;4.05;;;;;;;22.39;52.25;101173.53;5054403;28;20048;-67
2023/10/11 01:17:38;;;;;;;7.05;4.35;;;;;;;22.39;52.03;101170.06;5054011;28;20048;-66
2023/10/11 01:20:14;;;;;;;5.32;3.78;;;;;;;22.40;52.17;101171.72;5055272;28;20048;-65
2023/10/11 01:22:46;;;;;;;5.90;3.33;;;;;;;22.36;52.26;101163.31;5056941;28;20054;-67
2023/10/11 01:25:18;;;;;;;6.43;3.88;;;;;;;22.36;52.34;101159.84;5053694;28;20592;-66
2023/10/11 01:27:47;;;;;;;6.22;4.25;;;;;;;22.37;51.91;101156.16;5052955;28;20047;-66
2023/10/11 01:30:14;;;;;;;8.00;4.27;;;;;;;22.38;51.93;101147.19;5061816;28;20494;-65
2023/10/11 01:32:43;;;;;;;5.88;3.80;;;;;;;22.38;52.21;101147.19;5052758;28;20487;-66
2023/10/11 01:35:13;;;;;;;6.32;4.07;;;;;;;22.36;52.02;101151.88;5053571;28;20503;-66
2023/10/11 01:37:43;;;;;;;7.05;3.78;;;;;;;22.32;52.14;101148.78;5055274;28;20569;-65
2023/10/11 01:40:20;;;;;;;6.43;3.83;;;;;;;22.32;52.53;101151.44;5055205;28;20040;-66
2023/10/11 01:42:53;;;;;;;6.70;3.80;;;;;;;22.34;52.14;101148.59;5056295;28;20040;-65
2023/10/11 01:45:20;;;;;;;6.35;4.10;;;;;;;22.36;52.44;101154.53;5055906;28;20461;-65
2023/10/11 01:47:46;;;;;;;8.43;3.90;;;;;;;22.32;52.40;101146.13;5059046;28;20059;-65
2023/10/11 01:50:14;;;;;;;6.00;4.18;;;;;;;22.33;52.39;101141.66;5055206;28;20151;-65
2023/10/11 01:52:40;;;;;;;7.45;3.78;;;;;;;22.34;52.41;101141.44;5053078;28;20049;-65
2023/10/11 01:55:10;;;;;;;7.20;4.30;;;;;;;22.33;52.14;101142.47;5051998;28;20036;-66
2023/10/11 01:57:41;;;;;;;8.50;4.18;;;;;;;22.29;52.17;101136.72;5018932;28;20059;-66
2023/10/11 02:00:13;;;;;;;9.45;4.68;;;;;;;22.33;52.27;101142.47;5048561;28;20052;-66
2023/10/11 02:02:47;;;;;;;6.53;4.22;;;;;;;22.34;52.41;101130.84;5037691;28;20045;-66
2023/10/11 02:05:14;;;;;;;8.48;4.25;;;;;;;22.31;52.27;101126.75;5053952;28;20033;-65
2023/10/11 02:07:39;;;;;;;5.07;3.85;;;;;;;22.28;52.16;101121.81;5057447;28;20547;-66
2023/10/11 02:10:12;;;;;;;9.48;4.60;;;;;;;22.31;52.66;101121.44;5030326;28;20045;-66
2023/10/11 02:12:46;;;;;;;6.40;3.97;;;;;;;22.31;52.58;101117.97;5037521;28;20052;-66
2023/10/11 02:15:21;;;;;;;5.78;3.90;;;;;;;22.31;52.63;101120.59;5050407;28;20099;-64
2023/10/11 02:17:51;;;;;;;7.53;4.15;;;;;;;22.33;52.64;101126.53;5053409;28;20093;-65
2023/10/11 02:20:20;;;;;;;;;;;;;;;22.30;52.66;101119.78;5057680;28;20547;-65
2023/10/11 02:22:50;;;;;;;7.07;4.35;;;;;;;22.33;52.49;101110.63;5041316;28;20735;-65
2023/10/11 02:25:17;;;;;;;;;;;;;;;22.31;52.35;101102.03;5054906;28;20540;-65
2023/10/11 02:27:42;;;;;;;6.63;4.43;;;;;;;22.27;52.73;101088.34;5060051;28;19921;-65
2023/10/11 02:30:19;;;;;;;8.20;4.28;;;;;;;22.30;52.74;101089.78;5055354;28;20044;-64
2023/10/11 02:32:45;;;;;;;7.90;4.15;;;;;;;22.30;52.67;101087.94;5053709;28;20045;-65
2023/10/11 02:35:13;;;;;;;10.75;4.20;;;;;;;22.30;52.39;101097.75;5050264;28;20577;-64
2023/10/11 02:37:45;;;;;;;9.13;4.30;;;;;;;22.30;52.72;101095.91;5052163;28;20049;-65
2023/10/11 02:40:16;;;;;;;8.63;4.80;;;;;;;22.28;52.41;101089.97;5051219;28;20817;-65
2023/10/11 02:42:43;;;;;;;7.25;4.60;;;;;;;22.28;52.68;101092.63;5043695;28;20560;-65
2023/10/11 02:45:12;;;;;;;8.40;4.35;;;;;;;22.29;52.41;101085.50;5052518;28;20056;-65
2023/10/11 02:47:39;;;;;;;10.98;5.05;;;;;;;22.28;52.49;101087.31;5057632;28;20106;-64
2023/10/11 02:50:05;;;;;;;8.15;4.20;;;;;;;22.28;52.64;101089.97;5040439;28;20048;-64
2023/10/11 02:52:37;;;;;;;9.73;4.25;;;;;;;22.26;52.67;101088.50;5046647;28;20056;-65
2023/10/11 02:55:16;;;;;;;8.30;4.63;;;;;;;22.26;52.58;101089.34;5056803;28;20504;-64
2023/10/11 02:57:42;;;;;;;5.85;4.03;;;;;;;22.26;52.42;101107.91;5054631;28;20040;-65
2023/10/11 03:00:23;;;;;;;6.70;4.13;;;;;;;22.30;52.41;101105.69;5054618;28;20064;-65
2023/10/11 03:02:54;;;;;;;6.00;4.05;;;;;;;22.23;52.67;101081.75;5051185;28;20049;-65
2023/10/11 03:05:27;;;;;;;7.35;4.60;;;;;;;22.26;52.80;101096.47;5055715;28;20095;-65
2023/10/11 03:07:55;;;;;;;7.35;4.43;;;;;;;22.27;52.54;101072.41;5053965;28;20040;-65
2023/10/11 03:10:22;;;;;;;9.05;3.95;;;;;;;22.26;52.57;101075.22;5047427;28;20538;-65
2023/10/11 03:12:50;;;;;;;7.97;4.63;;;;;;;22.25;52.63;101074.41;5056243;28;20045;-65
2023/10/11 03:15:19;;;;;;;7.18;4.60;;;;;;;22.26;52.46;101069.94;5049827;28;20490;-66
2023/10/11 03:17:46;;;;;;;8.82;4.60;;;;;;;22.26;52.55;101069.94;5054932;28;20057;-65
2023/10/11 03:22:54;;;;;;;6.07;3.83;;;;;;;22.26;52.88;101077.88;5056903;28;20123;-65
2023/10/11 03:25:19;;;;;;;7.88;4.38;;;;;;;22.24;52.72;101064.00;5053892;28;20056;-66
2023/10/11 03:27:49;;;;;;;7.40;4.57;;;;;;;22.18;52.61;101041.72;5052664;28;20051;-66
2023/10/11 03:30:21;;;;;;;7.07;4.45;;;;;;;22.18;52.50;101035.59;5052744;28;20446;-65
2023/10/11 03:32:47;;;;;;;6.72;4.50;;;;;;;22.20;52.58;101054.78;5050113;28;20056;-65
2023/10/11 03:35:19;;;;;;;11.35;5.45;;;;;;;22.28;52.61;101075.91;5047029;28;20043;-65
2023/10/11 03:37:57;;;;;;;7.63;4.43;;;;;;;22.24;52.65;101070.13;5054386;28;20105;-65
2023/10/11 03:40:54;;;;;;;8.80;4.68;;;;;;;22.25;52.89;101070.94;5051203;28;20045;-65
2023/10/11 03:43:16;;;;;;;7.45;4.10;;;;;;;22.24;52.84;101064.00;5051348;28;20159;-65
2023/10/11 03:45:49;;;;;;;;;;;;;;;22.25;52.96;101071.75;5053995;28;20048;-66
2023/10/11 03:48:19;;;;;;;8.20;4.70;;;;;;;22.26;52.95;101070.78;5053321;28;20347;-64
2023/10/11 03:50:51;;;;;;;9.50;4.57;;;;;;;22.25;53.02;101070.94;5059727;28;20044;-65
2023/10/11 03:53:17;;;;;;;7.75;4.20;;;;;;;22.20;52.92;101060.91;5053101;28;20048;-65
2023/10/11 03:55:47;;;;;;;7.38;4.13;;;;;;;22.22;52.82;101058.88;5056496;28;20051;-64
2023/10/11 03:58:33;;;;;;;8.90;4.30;;;;;;;22.25;52.72;101060.31;5053588;28;20076;-67
2023/10/11 04:03:31;;;;;;;6.95;4.05;;;;;;;22.23;53.05;101063.19;5053769;28;20147;-67
2023/10/11 04:05:58;;;;;;;7.60;4.25;;;;;;;22.23;53.03;101055.22;5058684;28;20045;-65
2023/10/11 04:08:25;;;;;;;7.63;4.32;;;;;;;22.23;53.10;101046.44;5060213;28;20494;-64
2023/10/11 04:10:51;;;;;;;7.93;4.13;;;;;;;22.22;52.87;101040.31;5060143;28;20499;-65
2023/10/11 04:13:24;;;;;;;5.95;4.28;;;;;;;22.16;52.93;101033.13;5055017;28;20052;-65
2023/10/11 04:15:52;;;;;;;8.45;4.70;;;;;;;22.22;52.65;101029.72;5060890;28;20573;-65
2023/10/11 04:18:20;;;;;;;7.15;4.22;;;;;;;22.17;52.79;101023.34;5054838;28;20055;-66
2023/10/11 04:20:59;;;;;;;8.00;4.43;;;;;;;22.20;52.72;101021.13;5060548;28;20045;-64
2023/10/11 04:23:27;;;;;;;8.35;5.22;;;;;;;22.22;53.04;101019.09;5054072;28;20056;-65
2023/10/11 04:25:55;;;;;;;9.80;5.05;;;;;;;22.21;53.03;101027.25;5059272;28;20056;-65
2023/10/11 04:28:23;;;;;;;9.35;4.57;;;;;;;22.20;52.99;101029.06;5050018;28;20045;-65
2023/10/11 04:30:53;;;;;;;6.88;4.15;;;;;;;22.19;52.87;101030.09;5050256;28;20048;-64
2023/10/11 04:33:21;;;;;;;5.68;3.97;;;;;;;22.17;52.66;101048.03;5059402;28;20079;-65
2023/10/11 04:35:56;;;;;;;8.80;4.50;;;;;;;22.23;52.98;101044.59;5049886;28;20060;-64
2023/10/11 04:38:22;;;;;;;7.25;4.30;;;;;;;22.21;53.00;101053.78;5054070;28;20054;-65
2023/10/11 04:40:54;;;;;;;6.95;4.40;;;;;;;22.21;53.06;101046.63;5053878;28;20486;-65
2023/10/11 04:43:29;;;;;;;7.38;4.75;;;;;;;22.20;52.98;101060.09;5038297;28;20136;-65
2023/10/11 04:45:59;;;;;;;10.18;4.47;;;;;;;22.21;52.91;101073.16;5059303;28;20507;-65
2023/10/11 04:48:30;;;;;;;9.23;4.78;;;;;;;22.22;52.58;101068.69;5048955;28;20682;-64
2023/10/11 04:59:06;;;;;;;8.95;4.75;;;;;;;22.21;53.03;101036.03;5056153;28;20125;-64
2023/10/11 05:04:26;;;;;;;8.52;4.75;;;;;;;22.17;52.94;101042.72;5053247;28;20162;-64
2023/10/11 05:06:53;;;;;;;9.07;4.95;;;;;;;22.17;52.63;101045.38;5059191;28;20770;-65
2023/10/11 05:11:50;;;;;;;7.68;4.55;;;;;;;22.18;52.71;101039.06;5056808;28;20084;-64
2023/10/11 05:25:37;;;;;;;7.28;3.97;;;;;;;22.13;53.34;101041.47;5052079;28;20479;-65
2023/10/11 05:31:06;;;;;;;9.77;4.78;;;;;;;22.15;52.65;101023.53;5032560;28;20067;-64
2023/10/11 05:33:45;;;;;;;9.65;4.95;;;;;;;22.16;53.12;101033.13;5051052;28;20540;-65
2023/10/11 05:36:16;;;;;;;7.75;4.50;;;;;;;22.16;52.89;101029.66;5051148;28;20045;-64
2023/10/11 05:52:25;;;;;;;8.52;4.43;;;;;;;22.15;53.04;101036.78;5054423;28;20049;-64
2023/10/11 05:54:52;;;;;;;7.85;4.75;;;;;;;22.10;53.15;101047.16;5045740;28;20052;-64
2023/10/11 05:57:19;;;;;;;6.15;4.47;;;;;;;22.13;53.23;101046.78;5044057;28;20106;-64
2023/10/11 05:59:47;;;;;;;5.60;4.25;;;;;;;22.12;52.89;101037.19;5055238;28;20055;-65
2023/10/11 06:02:18;;;;;;;6.82;4.25;;;;;;;22.09;53.08;101031.44;5050642;28;20040;-64
2023/10/11 06:04:45;;;;;;;7.50;4.60;;;;;;;22.11;52.96;101043.50;5054246;28;20822;-64
2023/10/11 06:07:13;;;;;;;8.88;4.80;;;;;;;22.10;53.07;101033.91;5049198;28;20048;-65
2023/10/11 06:09:52;;;;;;;7.75;4.20;;;;;;;22.14;52.99;101029.03;5056002;28;20050;-65
2023/10/11 06:12:29;;;;;;;7.85;4.75;;;;;;;22.12;52.88;101020.44;5053899;28;20080;-65
2023/10/11 06:14:56;;;;;;;8.73;4.70;;;;;;;22.11;53.13;101034.72;5054388;28;20037;-65
2023/10/11 06:17:33;;;;;;;12.68;4.90;;;;;;;22.11;53.24;101040.84;5051443;28;20075;-67
2023/10/11 06:20:20;;;;;;;9.65;4.70;;;;;;;22.12;52.99;101028.41;5056238;28;20052;-67
2023/10/11 06:22:49;;;;;;;;;;;;;;;22.14;53.13;101039.63;5056740;28;20556;-65
2023/10/11 06:25:22;;;;;;;7.18;4.60;;;;;;;22.09;52.94;101034.91;5052368;28;20298;-64
2023/10/11 06:30:25;;;;;;;7.65;4.38;;;;;;;22.07;52.92;101028.13;5058315;28;20056;-65
2023/10/11 06:32:52;;;;;;;7.80;4.18;;;;;;;22.10;53.07;101030.44;5053166;28;20087;-64
2023/10/11 06:35:24;;;;;;;11.02;5.13;;;;;;;22.12;53.06;101037.19;5056972;28;20395;-65
2023/10/11 06:37:54;;;;;;;13.25;5.25;;;;;;;22.13;53.14;101041.47;5058125;28;20063;-65
2023/10/11 06:43:08;;;;;;;13.73;5.05;;;;;;;22.14;52.97;101053.72;5055332;28;20715;-65
2023/10/11 06:45:35;;;;;;;8.50;4.60;;;;;;;22.13;53.20;101053.91;5052749;28;20049;-65
2023/10/11 06:48:07;;;;;;;9.77;5.20;;;;;;;22.11;53.21;101055.94;5056847;28;20518;-65
2023/10/11 06:50:37;;;;;;;10.20;4.88;;;;;;;22.12;53.52;101062.88;5061167;28;20052;-64
2023/10/11 06:53:08;;;;;;;8.13;4.70;;;;;;;22.12;53.46;101057.56;5050612;28;20056;-65
2023/10/11 06:55:35;;;;;;;10.63;4.93;;;;;;;22.12;53.34;101046.97;5056803;28;20645;-65
2023/10/11 06:58:08;;;;;;;10.40;4.88;;;;;;;22.10;53.58;101057.75;5051059;28;20044;-64
2023/10/11 07:00:37;;;;;;;9.45;5.20;;;;;;;22.13;53.18;101061.88;5054346;28;20040;-64
2023/10/11 07:03:09;;;;;;;9.07;4.57;;;;;;;22.12;53.07;101055.75;5054913;28;20055;-65
2023/10/11 07:05:46;;;;;;;15.38;5.80;;;;;;;22.11;53.21;101054.09;5054398;28;20142;-65
2023/10/11 07:08:27;;;;;;;13.32;6.00;;;;;;;22.11;53.42;101051.44;5054400;28;20057;-65
2023/10/11 07:11:16;;;;;;;11.13;5.22;;;;;;;22.12;53.49;101045.13;5055898;28;20536;-65
2023/10/11 07:14:00;;;;;;;9.40;6.30;;;;;;;22.08;53.18;101040.38;5055262;28;20068;-65
2023/10/11 07:16:28;;;;;;;13.57;5.45;;;;;;;22.12;53.36;101050.44;5057699;28;20106;-65
2023/10/11 07:18:55;;;;;;;14.55;5.85;;;;;;;22.12;53.08;101042.47;5055681;28;20082;-65
2023/10/11 07:22:18;;;;;;;10.25;5.43;;;;;;;22.11;53.02;101038.19;5052224;28;20148;-64
2023/10/11 07:27:09;;;;;;;9.40;6.40;;;;;;;22.06;53.20;101032.59;5063179;28;20055;-65
2023/10/11 07:29:46;;;;;;;14.33;5.33;;;;;;;22.11;53.19;101046.16;5057628;28;20040;-65
2023/10/11 07:32:12;;;;;;;11.93;6.05;;;;;;;22.11;53.16;101043.50;5044004;28;20049;-65
2023/10/11 07:34:40;;;;;;;13.60;6.05;;;;;;;22.10;53.54;101035.72;5056288;28;20147;-65
2023/10/11 07:37:06;;;;;;;9.35;5.15;;;;;;;22.08;53.64;101038.53;5058194;28;20041;-65
2023/10/11 07:39:34;;;;;;;10.63;5.00;;;;;;;22.03;53.74;101039.09;5060543;28;20041;-65
2023/10/11 07:42:08;;;;;;;14.98;5.70;;;;;;;22.04;53.64;101034.59;5060115;28;20129;-65
2023/10/11 07:44:38;;;;;;;10.10;5.15;;;;;;;22.03;53.40;101022.34;5052712;28;20049;-65
2023/10/11 07:47:07;;;;;;;;;;;;;;;22.02;53.58;101023.38;5058953;28;20044;-65
2023/10/11 07:49:40;;;;;;;10.45;5.90;;;;;;;22.05;53.28;101022.19;5055575;28;20043;-66
2023/10/11 07:52:08;;;;;;;10.15;5.88;;;;;;;22.06;53.26;101023.84;5058834;28;20063;-65
2023/10/11 07:54:36;;;;;;;10.30;5.80;;;;;;;22.07;53.19;101026.28;5050167;28;20554;-65
2023/10/11 07:57:03;;;;;;;12.82;6.13;;;;;;;22.05;53.14;101015.06;5054394;28;20082;-65
2023/10/11 07:59:30;;;;;;;11.90;5.38;;;;;;;22.11;53.22;101024.09;5055860;28;20522;-66
2023/10/11 08:01:59;;;;;;;9.27;5.30;;;;;;;22.11;53.14;101032.88;5060163;28;20375;-65
2023/10/11 08:04:28;;;;;;;11.65;5.55;;;;;;;22.10;52.86;101025.94;5053225;28;20060;-65
2023/10/11 08:07:03;;;;;;;10.60;5.53;;;;;;;22.12;52.70;101029.22;5043369;28;20126;-65
2023/10/11 08:09:55;;;;;;;9.88;5.38;;;;;;;22.13;52.90;101030.88;5052216;28;20052;-65
2023/10/11 08:12:23;;;;;;;9.18;5.40;;;;;;;22.02;52.71;101010.09;5053880;28;20125;-65
2023/10/11 08:14:53;;;;;;;7.97;4.88;;;;;;;22.08;52.71;101033.25;5052688;28;20221;-65
2023/10/11 08:17:21;;;;;;;7.90;5.47;;;;;;;22.13;52.85;101044.13;5065033;28;20067;-65
2023/10/11 08:19:48;;;;;;;10.25;6.15;;;;;;;22.12;52.66;101041.66;5057730;28;20102;-65
2023/10/11 08:22:15;;;;;;;10.30;5.53;;;;;;;22.12;52.80;101053.09;5055545;28;20446;-66
2023/10/11 08:24:49;;;;;;;9.07;4.90;;;;;;;22.10;52.88;101035.72;5057680;28;20045;-67
2023/10/11 08:27:27;;;;;;;9.75;5.35;;;;;;;22.11;52.86;101045.31;5059670;28;20059;-66
2023/10/11 08:30:08;;;;;;;10.60;5.05;;;;;;;22.06;53.06;101053.00;5058437;28;20138;-66
2023/10/11 08:32:42;;;;;;;9.35;5.28;;;;;;;22.00;53.20;101047.44;5054850;28;20045;-67
2023/10/11 08:35:09;;;;;;;10.43;5.43;;;;;;;21.98;53.22;101056.59;5036969;28;20055;-67
2023/10/11 08:37:37;;;;;;;7.60;5.03;;;;;;;21.96;53.19;101077.97;5056759;28;20049;-66
2023/10/11 08:40:19;;;;;;;10.35;5.50;;;;;;;21.97;53.03;101066.38;5059758;28;20162;-66
2023/10/11 08:42:49;;;;;;;9.57;5.70;;;;;;;21.97;53.39;101069.03;5059274;28;20192;-66
2023/10/11 08:45:38;;;;;;;9.15;6.10;;;;;;;21.99;53.40;101063.53;5059941;28;20048;-69
2023/10/11 08:48:06;;;;;;;8.97;5.23;;;;;;;21.99;53.13;101074.13;5056407;28;20988;-68
2023/10/11 08:50:36;;;;;;;9.75;5.70;;;;;;;21.99;53.13;101069.66;5057466;28;20482;-67
2023/10/11 08:53:09;;;;;;;8.55;5.00;;;;;;;21.95;53.04;101047.19;5050201;28;20056;-66
2023/10/11 08:55:41;;;;;;;9.18;5.43;;;;;;;22.04;53.08;101066.44;5044978;28;20102;-66
2023/10/11 08:58:12;;;;;;;10.25;5.97;;;;;;;22.00;53.28;101067.81;5041516;28;20045;-67
2023/10/11 09:00:38;;;;;;;8.20;5.60;;;;;;;22.06;53.24;101079.53;5037893;28;20057;-66
2023/10/11 09:03:20;;;;;;;9.70;5.68;;;;;;;22.05;53.17;101076.06;5036765;28;20048;-66
2023/10/11 09:05:47;;;;;;;8.95;5.90;;;;;;;22.06;52.97;101080.34;5034742;28;20083;-66
2023/10/11 09:08:26;;;;;;;11.38;5.18;;;;;;;22.08;53.15;101077.50;5024750;28;20067;-66
2023/10/11 09:11:15;;;;;;;8.65;5.90;;;;;;;22.10;52.74;101084.28;5034178;28;20407;-66
2023/10/11 09:13:50;;;;;;;8.38;5.40;;;;;;;22.12;52.80;101084.09;5036718;28;20081;-66
2023/10/11 09:16:34;;;;;;;9.45;5.53;;;;;;;22.14;52.84;101090.03;5038762;28;20494;-66
2023/10/11 09:19:09;;;;;;;10.05;5.63;;;;;;;22.14;52.84;101095.34;5022624;28;20384;-66
2023/10/11 09:21:36;;;;;;;10.93;5.63;;;;;;;22.14;53.09;101092.69;5037213;28;20079;-66
2023/10/11 09:24:03;;;;;;;11.20;5.25;;;;;;;22.09;52.92;101085.31;5044146;28;20203;-66
2023/10/11 09:26:33;;;;;;;10.13;5.60;;;;;;;22.18;52.57;101101.91;5031136;28;20042;-66
2023/10/11 09:29:03;;;;;;;11.35;5.93;;;;;;;22.17;52.96;101111.69;5032766;28;20072;-66
2023/10/11 09:31:31;;;;;;;8.60;5.82;;;;;;;22.14;52.68;101112.06;5012212;28;20041;-66
2023/10/11 09:34:02;;;;;;;8.75;6.00;;;;;;;22.18;52.73;101123.13;5036400;28;21147;-66
2023/10/11 09:36:28;;;;;;;10.80;6.35;;;;;;;22.12;52.90;101105.31;5040872;28;20372;-66
2023/10/11 09:38:55;;;;;;;9.18;5.47;;;;;;;22.19;53.05;101114.97;5035118;28;20051;-66
2023/10/11 09:41:25;;;;;;;9.80;5.70;;;;;;;22.20;52.81;101119.25;5032986;28;20148;-66
2023/10/11 09:43:59;;;;;;;8.60;5.72;;;;;;;22.23;52.92;101128.66;5037481;28;20624;-67
2023/10/11 09:46:29;;;;;;;8.98;5.85;;;;;;;22.24;52.73;101128.47;5037468;28;20131;-66
2023/10/11 09:49:12;;;;;;;11.55;6.00;;;;;;;22.25;52.57;101130.13;5033552;28;20076;-66
2023/10/11 09:51:41;;;;;;;7.97;5.80;;;;;;;22.23;52.88;101121.53;5035223;28;20056;-65
2023/10/11 09:54:12;;;;;;;8.27;5.40;;;;;;;22.26;52.46;101141.56;5053629;28;20411;-65
2023/10/11 09:56:57;;;;;;;9.80;5.28;;;;;;;22.22;52.87;101137.63;5056081;28;20045;-65
2023/10/11 09:59:59;;;;;;;8.52;5.68;;;;;;;22.27;52.53;101145.88;5054665;28;20067;-65
2023/10/11 10:02:44;;;;;;;8.80;5.30;;;;;;;22.28;52.88;101134.25;4969882;28;20065;-65
2023/10/11 10:05:11;;;;;;;6.60;4.78;;;;;;;22.30;52.70;101137.53;5055101;28;20107;-65
2023/10/11 10:10:06;;;;;;;9.97;5.53;;;;;;;22.26;52.44;101121.19;5052635;28;20053;-65
2023/10/11 10:12:43;;;;;;;8.18;5.45;;;;;;;22.30;52.53;101121.63;5058595;28;20519;-65
2023/10/11 10:15:14;;;;;;;9.73;6.07;;;;;;;22.29;52.53;101119.97;5055005;28;20036;-65
2023/10/11 10:18:01;;;;;;;8.20;5.35;;;;;;;22.38;52.10;101124.13;5050177;28;20043;-66
2023/10/11 10:20:44;;;;;;;9.57;5.28;;;;;;;22.36;53.41;101117.38;5056914;28;20048;-68
2023/10/11 10:23:22;;;;;;;10.63;5.90;;;;;;;22.39;53.55;101127.63;5057418;28;20397;-67
2023/10/11 10:26:06;;;;;;;8.00;4.80;;;;;;;22.36;53.28;101117.38;5058237;28;20052;-66
2023/10/11 10:28:34;;;;;;;8.68;5.03;;;;;;;22.41;53.14;101130.91;5056554;28;20063;-67
2023/10/11 10:31:10;;;;;;;10.43;5.43;;;;;;;22.41;52.78;101139.69;5051160;28;20206;-66
2023/10/11 10:33:36;;;;;;;9.50;5.32;;;;;;;22.39;53.13;101125.78;5054585;28;20056;-65
2023/10/11 10:36:17;;;;;;;9.27;5.07;;;;;;;22.41;52.96;101107.00;5056284;28;20461;-65
2023/10/11 10:39:01;;;;;;;9.05;5.32;;;;;;;22.42;52.72;101111.31;5056181;28;20119;-66
2023/10/11 10:41:31;;;;;;;7.43;4.78;;;;;;;22.42;52.76;101111.31;5053549;28;20790;-65
2023/10/11 10:44:10;;;;;;;9.40;4.93;;;;;;;22.43;52.58;101095.19;5051905;28;20976;-66
2023/10/11 10:46:46;;;;;;;10.67;4.37;;;;;;;22.43;52.49;101102.34;5058253;28;20048;-67
2023/10/11 10:49:12;;;;;;;10.50;5.13;;;;;;;22.44;52.79;101088.91;5052543;28;20048;-66
2023/10/11 10:51:39;;;;;;;7.72;4.68;;;;;;;22.45;52.75;101087.91;5055829;28;20873;-66
2023/10/11 10:54:14;;;;;;;6.47;4.95;;;;;;;22.42;52.72;101084.78;5047890;28;20057;-66
2023/10/11 10:56:41;;;;;;;7.78;4.82;;;;;;;22.46;52.72;101094.03;5054962;28;20048;-66
2023/10/11 10:59:11;;;;;;;11.65;5.13;;;;;;;22.43;52.75;101076.63;5051255;28;20064;-66
2023/10/11 11:01:44;;;;;;;7.88;5.00;;;;;;;22.47;52.80;101087.69;5040702;28;20489;-66
2023/10/11 11:04:14;;;;;;;8.77;5.07;;;;;;;22.42;52.60;101071.50;5053075;28;20444;-66
2023/10/11 11:06:45;;;;;;;7.63;4.80;;;;;;;22.43;52.57;101066.00;5057320;28;20052;-66
2023/10/11 11:09:15;;;;;;;9.18;5.07;;;;;;;22.49;52.61;101085.66;5056970;28;20057;-66
2023/10/11 11:11:42;;;;;;;7.50;4.45;;;;;;;22.44;52.59;101072.97;5053044;28;20033;-66
2023/10/11 11:14:13;;;;;;;8.23;4.65;;;;;;;22.47;52.65;101075.25;5057547;28;20750;-66
2023/10/11 11:16:40;;;;;;;7.07;4.32;;;;;;;22.49;52.50;101080.38;5052076;28;20072;-66
2023/10/11 11:19:16;;;;;;;8.45;4.78;;;;;;;22.50;52.60;101082.81;5055840;28;20041;-66
2023/10/11 11:21:45;;;;;;;7.45;4.30;;;;;;;22.51;52.80;101075.69;5051604;28;20226;-66
2023/10/11 11:24:20;;;;;;;8.93;5.38;;;;;;;22.48;52.77;101066.28;5050419;28;20075;-67
2023/10/11 11:26:46;;;;;;;7.60;4.60;;;;;;;22.51;52.77;101073.03;5056688;28;20787;-66
2023/10/11 11:29:31;;;;;;;8.45;4.40;;;;;;;22.50;52.75;101082.81;5056352;28;20044;-66
2023/10/11 11:32:14;;;;;;;8.50;4.72;;;;;;;22.51;52.35;101087.13;5051486;28;20582;-67
2023/10/11 11:35:04;;;;;;;7.53;4.75;;;;;;;22.53;52.67;101081.63;5040128;28;20075;-66
2023/10/11 11:37:31;;;;;;;7.22;4.65;;;;;;;22.51;52.70;101083.66;5051008;28;20049;-66
2023/10/11 11:40:18;;;;;;;7.15;4.53;;;;;;;22.50;52.62;101092.63;5055044;28;20062;-66
2023/10/11 11:42:49;;;;;;;6.25;4.25;;;;;;;22.50;52.64;101096.09;5041889;28;20125;-67
2023/10/11 11:45:19;;;;;;;7.00;4.43;;;;;;;22.50;52.75;101092.63;5056193;28;20057;-67
2023/10/11 11:47:57;;;;;;;7.40;3.95;;;;;;;22.53;52.43;101078.97;5050730;28;20048;-67
2023/10/11 11:50:33;;;;;;;7.50;4.28;;;;;;;22.46;52.64;101076.25;5052764;28;20803;-66
2023/10/11 11:53:03;;;;;;;6.38;4.18;;;;;;;22.52;52.43;101083.44;5058314;28;20051;-67
2023/10/11 11:55:28;;;;;;;5.88;3.58;;;;;;;22.51;52.74;101083.66;5036853;28;20166;-67
2023/10/11 11:57:55;;;;;;;8.45;4.40;;;;;;;22.51;52.32;101055.28;5053543;28;20041;-67
2023/10/11 12:02:58;;;;;;;7.97;3.93;;;;;;;22.52;52.64;101061.41;5053499;28;20490;-66
2023/10/11 12:05:25;;;;;;;7.00;3.92;;;;;;;22.53;52.41;101066.50;5041770;28;20152;-66
2023/10/11 12:07:51;;;;;;;6.78;3.85;;;;;;;22.52;52.68;101072.84;5057082;28;20055;-66
2023/10/11 12:10:23;;;;;;;6.85;4.47;;;;;;;22.52;52.65;101064.06;5051527;28;20045;-66
2023/10/11 12:13:05;;;;;;;5.88;3.78;;;;;;;22.51;52.38;101049.97;5055595;28;20923;-67
2023/10/11 12:15:35;;;;;;;5.85;3.97;;;;;;;22.48;52.53;101041.56;5037441;28;20040;-66
2023/10/11 12:18:05;;;;;;;5.63;3.85;;;;;;;22.55;52.71;101045.09;5040044;28;20048;-66
2023/10/11 12:20:34;;;;;;;;;;;;;;;22.53;52.46;101047.13;5058836;28;20053;-66
2023/10/11 12:23:08;;;;;;;7.03;4.07;;;;;;;22.48;52.50;101039.75;5056473;28;19928;-66
2023/10/11 12:25:38;;;;;;;6.32;4.18;;;;;;;22.50;52.56;101058.13;5060700;28;21191;-66
2023/10/11 12:28:04;;;;;;;;;;;;;;;22.54;52.65;101064.69;5057076;28;20044;-66
2023/10/11 12:30:34;;;;;;;8.57;4.05;;;;;;;22.54;52.67;101054.88;5058647;28;19926;-66
2023/10/11 12:33:09;;;;;;;5.03;3.65;;;;;;;22.54;52.62;101054.88;5038794;28;20076;-66
2023/10/11 12:35:42;;;;;;;5.72;3.85;;;;;;;22.49;52.87;101040.56;5058562;28;20032;-66
2023/10/11 12:38:12;;;;;;;5.53;3.67;;;;;;;22.52;52.59;101026.91;5058268;28;20059;-66
2023/10/11 12:40:41;;;;;;;4.88;3.63;;;;;;;22.54;52.48;101049.56;5051633;28;20078;-66
2023/10/11 12:43:09;;;;;;;7.07;3.55;;;;;;;22.51;52.92;101043.84;5059652;28;20044;-67
2023/10/11 12:45:42;;;;;;;6.38;3.83;;;;;;;22.55;52.41;101053.88;5050458;28;20044;-67